sensor_id;sensor_type;location;lat;lon;timestamp;pressure;altitude;pressure_sealevel;temperature;humidity
47985;BME280;33753;52.912;-7.342;2023-02-13T00:02:03;101686.16;;;7.01;100.00
47985;BME280;33753;52.912;-7.342;2023-02-13T00:04:31;101692.75;;;6.97;100.00
47985;BME280;33753;52.912;-7.342;2023-02-13T00:07:00;101694.47;;;6.98;100.00
47985;BME280;33753;52.912;-7.342;2023-02-13T00:09:28;101690.81;;;6.99;100.00
47985;BME280;33753;52.912;-7.342;2023-02-13T00:11:56;101705.00;;;7.01;100.00
47985;BME280;33753;52.912;-7.342;2023-02-13T00:14:26;101707.81;;;7.00;100.00
47985;BME280;33753;52.912;-7.342;2023-02-13T00:16:54;101714.78;;;7.02;100.00
47985;BME280;33753;52.912;-7.342;2023-02-13T00:19:22;101707.81;;;7.00;100.00
47985;BME280;33753;52.912;-7.342;2023-02-13T00:21:50;101719.44;;;7.00;100.00
47985;BME280;33753;52.912;-7.342;2023-02-13T00:24:18;101712.09;;;7.02;100.00
47985;BME280;33753;52.912;-7.342;2023-02-13T00:26:46;101717.47;;;7.02;100.00
47985;BME280;33753;52.912;-7.342;2023-02-13T00:29:15;101708.22;;;7.06;100.00
47985;BME280;33753;52.912;-7.342;2023-02-13T00:31:44;101715.88;;;7.00;100.00
47985;BME280;33753;52.912;-7.342;2023-02-13T00:34:13;101717.47;;;7.02;100.00
47985;BME280;33753;52.912;-7.342;2023-02-13T00:36:41;101709.78;;;6.98;100.00
47985;BME280;33753;52.912;-7.342;2023-02-13T00:39:10;101700.38;;;7.03;100.00
47985;BME280;33753;52.912;-7.342;2023-02-13T00:41:39;101701.59;;;6.99;100.00
47985;BME280;33753;52.912;-7.342;2023-02-13T00:44:07;101703.31;;;7.00;100.00
47985;BME280;33753;52.912;-7.342;2023-02-13T00:46:36;101698.88;;;6.99;100.00
47985;BME280;33753;52.912;-7.342;2023-02-13T00:49:06;101700.94;;;6.96;100.00
47985;BME280;33753;52.912;-7.342;2023-02-13T00:51:34;101697.28;;;6.97;100.00
47985;BME280;33753;52.912;-7.342;2023-02-13T00:54:02;101690.19;;;6.96;100.00
47985;BME280;33753;52.912;-7.342;2023-02-13T00:56:30;101692.75;;;6.97;100.00
47985;BME280;33753;52.912;-7.342;2023-02-13T00:58:59;101686.78;;;6.94;100.00
47985;BME280;33753;52.912;-7.342;2023-02-13T01:01:27;101683.44;;;6.90;100.00
47985;BME280;33753;52.912;-7.342;2023-02-13T01:03:55;101686.13;;;6.90;100.00
47985;BME280;33753;52.912;-7.342;2023-02-13T01:06:25;101686.38;;;6.87;100.00
47985;BME280;33753;52.912;-7.342;2023-02-13T01:08:53;101680.75;;;6.90;100.00
47985;BME280;33753;52.912;-7.342;2023-02-13T01:11:21;101682.72;;;6.88;100.00
47985;BME280;33753;52.912;-7.342;2023-02-13T01:13:49;101679.91;;;6.89;100.00
47985;BME280;33753;52.912;-7.342;2023-02-13T01:16:19;101696.16;;;6.88;100.00
47985;BME280;33753;52.912;-7.342;2023-02-13T01:18:47;101693.47;;;6.88;100.00
47985;BME280;33753;52.912;-7.342;2023-02-13T01:21:16;101702.06;;;6.93;100.00
47985;BME280;33753;52.912;-7.342;2023-02-13T01:23:46;101698.00;;;6.99;100.00
47985;BME280;33753;52.912;-7.342;2023-02-13T01:26:19;101696.19;;;6.99;100.00
47985;BME280;33753;52.912;-7.342;2023-02-13T01:28:50;101699.84;;;6.98;100.00
47985;BME280;33753;52.912;-7.342;2023-02-13T01:31:19;101697.69;;;7.03;100.00
47985;BME280;33753;52.912;-7.342;2023-02-13T01:33:49;101689.50;;;7.05;100.00
47985;BME280;33753;52.912;-7.342;2023-02-13T01:36:20;101705.50;;;7.06;100.00
47985;BME280;33753;52.912;-7.342;2023-02-13T01:38:52;101703.91;;;7.04;100.00
47985;BME280;33753;52.912;-7.342;2023-02-13T01:41:22;101692.06;;;7.06;100.00
47985;BME280;33753;52.912;-7.342;2023-02-13T01:43:52;101701.22;;;7.04;100.00
47985;BME280;33753;52.912;-7.342;2023-02-13T01:46:22;101695.47;;;7.08;100.00
47985;BME280;33753;52.912;-7.342;2023-02-13T01:48:52;101693.28;;;7.02;100.00
47985;BME280;33753;52.912;-7.342;2023-02-13T01:51:22;101685.59;;;7.09;100.00
47985;BME280;33753;52.912;-7.342;2023-02-13T01:53:56;101689.25;;;7.08;100.00
47985;BME280;33753;52.912;-7.342;2023-02-13T01:56:27;101681.53;;;7.03;100.00
47985;BME280;33753;52.912;-7.342;2023-02-13T01:58:57;101682.28;;;7.05;100.00
47985;BME280;33753;52.912;-7.342;2023-02-13T02:01:26;101677.84;;;7.04;100.00
47985;BME280;33753;52.912;-7.342;2023-02-13T02:03:56;101662.97;;;7.00;100.00
47985;BME280;33753;52.912;-7.342;2023-02-13T02:06:30;101674.44;;;7.02;100.00
47985;BME280;33753;52.912;-7.342;2023-02-13T02:09:02;101664.75;;;7.00;100.00
47985;BME280;33753;52.912;-7.342;2023-02-13T02:11:33;101661.00;;;7.02;100.00
47985;BME280;33753;52.912;-7.342;2023-02-13T02:14:03;101658.31;;;7.02;100.00
47985;BME280;33753;52.912;-7.342;2023-02-13T02:16:35;101663.91;;;6.99;100.00
47985;BME280;33753;52.912;-7.342;2023-02-13T02:19:03;101667.09;;;7.04;100.00
47985;BME280;33753;52.912;-7.342;2023-02-13T02:21:49;101661.97;;;7.01;100.00
47985;BME280;33753;52.912;-7.342;2023-02-13T02:27:17;101660.75;;;7.05;100.00
47985;BME280;33753;52.912;-7.342;2023-02-13T02:32:45;101657.22;;;7.05;100.00
47985;BME280;33753;52.912;-7.342;2023-02-13T02:35:21;101658.53;;;6.99;100.00
47985;BME280;33753;52.912;-7.342;2023-02-13T02:38:00;101652.41;;;6.97;100.00
47985;BME280;33753;52.912;-7.342;2023-02-13T02:40:35;101647.03;;;6.97;100.00
47985;BME280;33753;52.912;-7.342;2023-02-13T02:43:09;101647.28;;;6.94;100.00
47985;BME280;33753;52.912;-7.342;2023-02-13T02:45:43;101642.88;;;6.93;100.00
47985;BME280;33753;52.912;-7.342;2023-02-13T02:48:20;101642.88;;;6.93;100.00
47985;BME280;33753;52.912;-7.342;2023-02-13T02:51:07;101651.28;;;6.88;100.00
47985;BME280;33753;52.912;-7.342;2023-02-13T02:53:40;101642.50;;;6.86;100.00
47985;BME280;33753;52.912;-7.342;2023-02-13T02:56:11;101643.34;;;6.87;100.00
47985;BME280;33753;52.912;-7.342;2023-02-13T02:58:42;101633.47;;;6.87;100.00
47985;BME280;33753;52.912;-7.342;2023-02-13T03:01:32;101634.03;;;6.80;100.00
47985;BME280;33753;52.912;-7.342;2023-02-13T03:04:22;101632.22;;;6.80;100.00
47985;BME280;33753;52.912;-7.342;2023-02-13T03:07:23;101632.66;;;6.74;100.00
47985;BME280;33753;52.912;-7.342;2023-02-13T03:09:52;101639.78;;;6.75;100.00
47985;BME280;33753;52.912;-7.342;2023-02-13T03:12:42;101636.97;;;6.77;100.00
47985;BME280;33753;52.912;-7.342;2023-02-13T03:15:29;101627.41;;;6.72;100.00
47985;BME280;33753;52.912;-7.342;2023-02-13T03:17:58;101627.41;;;6.72;100.00
47985;BME280;33753;52.912;-7.342;2023-02-13T03:20:46;101625.81;;;6.70;100.00
47985;BME280;33753;52.912;-7.342;2023-02-13T03:23:36;101628.63;;;6.68;100.00
47985;BME280;33753;52.912;-7.342;2023-02-13T03:29:12;101620.28;;;6.60;100.00
47985;BME280;33753;52.912;-7.342;2023-02-13T03:32:03;101612.97;;;6.62;100.00
47985;BME280;33753;52.912;-7.342;2023-02-13T03:34:36;101614.91;;;6.60;100.00
47985;BME280;33753;52.912;-7.342;2023-02-13T03:37:24;101609.75;;;6.57;100.00
47985;BME280;33753;52.912;-7.342;2023-02-13T03:40:12;101604.91;;;6.62;100.00
47985;BME280;33753;52.912;-7.342;2023-02-13T03:42:43;101619.41;;;6.60;100.00
47985;BME280;33753;52.912;-7.342;2023-02-13T03:45:15;101609.53;;;6.60;100.00
47985;BME280;33753;52.912;-7.342;2023-02-13T03:48:03;101616.25;;;6.54;100.00
47985;BME280;33753;52.912;-7.342;2023-02-13T03:50:53;101594.38;;;6.59;100.00
47985;BME280;33753;52.912;-7.342;2023-02-13T03:53:22;101601.22;;;6.52;100.00
47985;BME280;33753;52.912;-7.342;2023-02-13T03:55:51;101593.88;;;6.54;100.00
47985;BME280;33753;52.912;-7.342;2023-02-13T03:58:40;101596.06;;;6.49;100.00
47985;BME280;33753;52.912;-7.342;2023-02-13T04:01:27;101593.72;;;6.44;100.00
47985;BME280;33753;52.912;-7.342;2023-02-13T04:03:58;101601.03;;;6.42;100.00
47985;BME280;33753;52.912;-7.342;2023-02-13T04:06:30;101596.88;;;6.38;100.00
47985;BME280;33753;52.912;-7.342;2023-02-13T04:09:00;101585.16;;;6.39;100.00
47985;BME280;33753;52.912;-7.342;2023-02-13T04:11:29;101587.97;;;6.37;100.00
47985;BME280;33753;52.912;-7.342;2023-02-13T04:14:00;101593.53;;;6.34;100.00
47985;BME280;33753;52.912;-7.342;2023-02-13T04:16:30;101595.50;;;6.32;100.00
47985;BME280;33753;52.912;-7.342;2023-02-13T04:19:00;101592.09;;;6.30;100.00
47985;BME280;33753;52.912;-7.342;2023-02-13T04:21:31;101584.13;;;6.29;100.00
47985;BME280;33753;52.912;-7.342;2023-02-13T04:24:01;101587.91;;;6.26;100.00
47985;BME280;33753;52.912;-7.342;2023-02-13T04:26:33;101580.59;;;6.28;100.00
47985;BME280;33753;52.912;-7.342;2023-02-13T04:29:02;101572.75;;;6.25;100.00
47985;BME280;33753;52.912;-7.342;2023-02-13T04:31:30;101573.72;;;6.24;100.00
47985;BME280;33753;52.912;-7.342;2023-02-13T04:33:59;101579.44;;;6.19;100.00
47985;BME280;33753;52.912;-7.342;2023-02-13T04:36:27;101576.66;;;6.21;100.00
47985;BME280;33753;52.912;-7.342;2023-02-13T04:38:55;101567.63;;;6.22;100.00
47985;BME280;33753;52.912;-7.342;2023-02-13T04:41:25;101582.03;;;6.21;100.00
47985;BME280;33753;52.912;-7.342;2023-02-13T04:43:53;101573.00;;;6.22;100.00
47985;BME280;33753;52.912;-7.342;2023-02-13T04:46:21;101562.25;;;6.22;100.00
47985;BME280;33753;52.912;-7.342;2023-02-13T04:48:49;101562.25;;;6.22;100.00
47985;BME280;33753;52.912;-7.342;2023-02-13T04:51:17;101566.84;;;6.20;100.00
47985;BME280;33753;52.912;-7.342;2023-02-13T04:53:46;101549.78;;;6.21;100.00
47985;BME280;33753;52.912;-7.342;2023-02-13T04:56:14;101545.25;;;6.21;100.00
47985;BME280;33753;52.912;-7.342;2023-02-13T04:58:46;101545.72;;;6.15;100.00
47985;BME280;33753;52.912;-7.342;2023-02-13T05:01:15;101543.88;;;6.16;100.00
47985;BME280;33753;52.912;-7.342;2023-02-13T05:03:43;101552.06;;;6.14;100.00
47985;BME280;33753;52.912;-7.342;2023-02-13T05:06:11;101552.59;;;6.19;100.00
47985;BME280;33753;52.912;-7.342;2023-02-13T05:08:40;101550.25;;;6.15;100.00
47985;BME280;33753;52.912;-7.342;2023-02-13T05:11:08;101557.44;;;6.14;100.00
47985;BME280;33753;52.912;-7.342;2023-02-13T05:13:36;101558.31;;;6.15;100.00
47985;BME280;33753;52.912;-7.342;2023-02-13T05:16:06;101561.97;;;6.14;100.00
47985;BME280;33753;52.912;-7.342;2023-02-13T05:18:34;101552.94;;;6.15;100.00
47985;BME280;33753;52.912;-7.342;2023-02-13T05:21:02;101548.53;;;6.14;100.00
47985;BME280;33753;52.912;-7.342;2023-02-13T05:23:48;101548.53;;;6.14;100.00
47985;BME280;33753;52.912;-7.342;2023-02-13T05:26:16;101553.06;;;6.13;100.00
47985;BME280;33753;52.912;-7.342;2023-02-13T05:28:44;101544.88;;;6.15;100.00
47985;BME280;33753;52.912;-7.342;2023-02-13T05:31:31;101544.66;;;6.18;100.00
47985;BME280;33753;52.912;-7.342;2023-02-13T05:34:00;101541.00;;;6.19;100.00
47985;BME280;33753;52.912;-7.342;2023-02-13T05:36:28;101541.00;;;6.19;100.00
47985;BME280;33753;52.912;-7.342;2023-02-13T05:38:56;101537.94;;;6.23;100.00
47985;BME280;33753;52.912;-7.342;2023-02-13T05:41:24;101554.06;;;6.23;100.00
47985;BME280;33753;52.912;-7.342;2023-02-13T05:43:52;101551.03;;;6.28;100.00
47985;BME280;33753;52.912;-7.342;2023-02-13T05:46:20;101553.00;;;6.26;100.00
47985;BME280;33753;52.912;-7.342;2023-02-13T05:48:51;101552.28;;;6.35;100.00
47985;BME280;33753;52.912;-7.342;2023-02-13T05:51:19;101553.22;;;6.34;100.00
47985;BME280;33753;52.912;-7.342;2023-02-13T05:53:47;101550.34;;;6.37;100.00
47985;BME280;33753;52.912;-7.342;2023-02-13T05:56:15;101551.78;;;6.42;100.00
47985;BME280;33753;52.912;-7.342;2023-02-13T05:58:43;101542.75;;;6.43;100.00
47985;BME280;33753;52.912;-7.342;2023-02-13T06:01:12;101547.91;;;6.46;100.00
47985;BME280;33753;52.912;-7.342;2023-02-13T06:03:40;101558.78;;;6.44;100.00
47985;BME280;33753;52.912;-7.342;2023-02-13T06:06:09;101554.28;;;6.45;100.00
47985;BME280;33753;52.912;-7.342;2023-02-13T06:08:38;101551.09;;;6.51;100.00
47985;BME280;33753;52.912;-7.342;2023-02-13T06:11:06;101557.31;;;6.51;100.00
47985;BME280;33753;52.912;-7.342;2023-02-13T06:13:34;101553.44;;;6.55;100.00
47985;BME280;33753;52.912;-7.342;2023-02-13T06:16:06;101558.34;;;6.62;100.00
47985;BME280;33753;52.912;-7.342;2023-02-13T06:18:35;101557.22;;;6.64;100.00
47985;BME280;33753;52.912;-7.342;2023-02-13T06:21:03;101559.91;;;6.64;100.00
47985;BME280;33753;52.912;-7.342;2023-02-13T06:23:33;101558.94;;;6.65;100.00
47985;BME280;33753;52.912;-7.342;2023-02-13T06:26:02;101565.09;;;6.67;100.00
47985;BME280;33753;52.912;-7.342;2023-02-13T06:28:30;101565.81;;;6.69;100.00
47985;BME280;33753;52.912;-7.342;2023-02-13T06:30:59;101562.16;;;6.70;100.00
47985;BME280;33753;52.912;-7.342;2023-02-13T06:33:28;101565.81;;;6.69;100.00
47985;BME280;33753;52.912;-7.342;2023-02-13T06:35:56;101560.44;;;6.69;100.00
47985;BME280;33753;52.912;-7.342;2023-02-13T06:38:24;101549.03;;;6.66;100.00
47985;BME280;33753;52.912;-7.342;2023-02-13T06:40:57;101557.03;;;6.67;100.00
47985;BME280;33753;52.912;-7.342;2023-02-13T06:43:26;101548.84;;;6.69;100.00
47985;BME280;33753;52.912;-7.342;2023-02-13T06:45:54;101548.19;;;6.65;100.00
47985;BME280;33753;52.912;-7.342;2023-02-13T06:48:22;101542.81;;;6.65;100.00
47985;BME280;33753;52.912;-7.342;2023-02-13T06:50:51;101546.34;;;6.66;100.00
47985;BME280;33753;52.912;-7.342;2023-02-13T06:53:19;101541.09;;;6.64;100.00
47985;BME280;33753;52.912;-7.342;2023-02-13T06:55:50;101535.97;;;6.61;100.00
47985;BME280;33753;52.912;-7.342;2023-02-13T06:58:21;101538.91;;;6.58;100.00
47985;BME280;33753;52.912;-7.342;2023-02-13T07:00:50;101536.69;;;6.52;100.00
47985;BME280;33753;52.912;-7.342;2023-02-13T07:03:18;101540.34;;;6.51;100.00
47985;BME280;33753;52.912;-7.342;2023-02-13T07:05:47;101547.06;;;6.45;100.00
47985;BME280;33753;52.912;-7.342;2023-02-13T07:08:17;101539.59;;;6.37;100.00
47985;BME280;33753;52.912;-7.342;2023-02-13T07:10:45;101535.47;;;6.45;100.00
47985;BME280;33753;52.912;-7.342;2023-02-13T07:13:14;101543.72;;;6.42;100.00
47985;BME280;33753;52.912;-7.342;2023-02-13T07:15:43;101540.84;;;6.45;100.00
47985;BME280;33753;52.912;-7.342;2023-02-13T07:18:11;101549.84;;;6.44;100.00
47985;BME280;33753;52.912;-7.342;2023-02-13T07:20:40;101547.16;;;6.44;100.00
47985;BME280;33753;52.912;-7.342;2023-02-13T07:23:08;101553.50;;;6.43;100.00
47985;BME280;33753;52.912;-7.342;2023-02-13T07:25:37;101551.69;;;6.43;100.00
47985;BME280;33753;52.912;-7.342;2023-02-13T07:28:05;101560.09;;;6.38;100.00
47985;BME280;33753;52.912;-7.342;2023-02-13T07:30:33;101564.91;;;6.46;100.00
47985;BME280;33753;52.912;-7.342;2023-02-13T07:33:04;101559.00;;;6.41;100.00
47985;BME280;33753;52.912;-7.342;2023-02-13T07:35:32;101560.22;;;6.37;100.00
47985;BME280;33753;52.912;-7.342;2023-02-13T07:38:01;101562.78;;;6.38;100.00
47985;BME280;33753;52.912;-7.342;2023-02-13T07:40:30;101566.47;;;6.37;100.00
47985;BME280;33753;52.912;-7.342;2023-02-13T07:42:59;101566.66;;;6.34;100.00
47985;BME280;33753;52.912;-7.342;2023-02-13T07:45:27;101575.72;;;6.33;100.00
47985;BME280;33753;52.912;-7.342;2023-02-13T07:47:55;101575.97;;;6.30;100.00
47985;BME280;33753;52.912;-7.342;2023-02-13T07:50:25;101585.13;;;6.28;100.00
47985;BME280;33753;52.912;-7.342;2023-02-13T07:52:54;101576.16;;;6.27;100.00
47985;BME280;33753;52.912;-7.342;2023-02-13T07:55:22;101576.16;;;6.27;100.00
47985;BME280;33753;52.912;-7.342;2023-02-13T07:57:50;101568.00;;;6.29;100.00
47985;BME280;33753;52.912;-7.342;2023-02-13T08:00:19;101566.41;;;6.26;100.00
47985;BME280;33753;52.912;-7.342;2023-02-13T08:02:47;101568.47;;;6.22;100.00
47985;BME280;33753;52.912;-7.342;2023-02-13T08:05:15;101562.25;;;6.22;100.00
47985;BME280;33753;52.912;-7.342;2023-02-13T08:07:45;101571.75;;;6.15;100.00
47985;BME280;33753;52.912;-7.342;2023-02-13T08:10:14;101574.66;;;6.12;100.00
47985;BME280;33753;52.912;-7.342;2023-02-13T08:13:00;101567.34;;;6.14;100.00
47985;BME280;33753;52.912;-7.342;2023-02-13T08:15:28;101577.13;;;6.15;100.00
47985;BME280;33753;52.912;-7.342;2023-02-13T08:17:56;101574.31;;;6.16;100.00
47985;BME280;33753;52.912;-7.342;2023-02-13T08:20:24;101574.19;;;6.18;100.00
47985;BME280;33753;52.912;-7.342;2023-02-13T08:22:57;101581.28;;;6.19;100.00
47985;BME280;33753;52.912;-7.342;2023-02-13T08:25:29;101574.91;;;6.20;100.00
47985;BME280;33753;52.912;-7.342;2023-02-13T08:27:57;101582.25;;;6.18;100.00
47985;BME280;33753;52.912;-7.342;2023-02-13T08:30:26;101579.56;;;6.18;100.00
47985;BME280;33753;52.912;-7.342;2023-02-13T08:32:54;101581.28;;;6.19;100.00
47985;BME280;33753;52.912;-7.342;2023-02-13T08:35:22;101562.69;;;6.16;100.00
47985;BME280;33753;52.912;-7.342;2023-02-13T08:38:01;101582.25;;;6.18;100.00
47985;BME280;33753;52.912;-7.342;2023-02-13T08:40:29;101584.19;;;6.16;100.00
47985;BME280;33753;52.912;-7.342;2023-02-13T08:42:58;101587.63;;;6.18;100.00
47985;BME280;33753;52.912;-7.342;2023-02-13T08:45:27;101587.63;;;6.18;100.00
47985;BME280;33753;52.912;-7.342;2023-02-13T08:47:56;101595.56;;;6.19;100.00
47985;BME280;33753;52.912;-7.342;2023-02-13T08:50:25;101582.78;;;6.23;100.00
47985;BME280;33753;52.912;-7.342;2023-02-13T08:52:53;101584.47;;;6.24;100.00
47985;BME280;33753;52.912;-7.342;2023-02-13T08:55:24;101588.66;;;6.28;100.00
47985;BME280;33753;52.912;-7.342;2023-02-13T08:57:52;101588.53;;;6.30;100.00
47985;BME280;33753;52.912;-7.342;2023-02-13T09:00:20;101593.34;;;6.37;100.00
47985;BME280;33753;52.912;-7.342;2023-02-13T09:02:49;101594.78;;;6.42;100.00
47985;BME280;33753;52.912;-7.342;2023-02-13T09:05:18;101598.00;;;6.47;100.00
47985;BME280;33753;52.912;-7.342;2023-02-13T09:07:46;101589.47;;;6.53;100.00
47985;BME280;33753;52.912;-7.342;2023-02-13T09:10:14;101593.50;;;6.58;100.00
47985;BME280;33753;52.912;-7.342;2023-02-13T09:12:44;101595.25;;;6.71;100.00
47985;BME280;33753;52.912;-7.342;2023-02-13T09:15:18;101588.94;;;6.83;100.00
47985;BME280;33753;52.912;-7.342;2023-02-13T09:17:46;101597.88;;;6.95;100.00
47985;BME280;33753;52.912;-7.342;2023-02-13T09:20:16;101587.25;;;7.05;100.00
47985;BME280;33753;52.912;-7.342;2023-02-13T09:22:44;101589.59;;;7.09;100.00
47985;BME280;33753;52.912;-7.342;2023-02-13T09:25:13;101579.53;;;7.23;100.00
47985;BME280;33753;52.912;-7.342;2023-02-13T09:27:41;101574.16;;;7.34;100.00
47985;BME280;33753;52.912;-7.342;2023-02-13T09:30:11;101574.66;;;7.39;100.00
47985;BME280;33753;52.912;-7.342;2023-02-13T09:32:48;101580.75;;;7.53;100.00
47985;BME280;33753;52.912;-7.342;2023-02-13T09:35:17;101568.06;;;7.55;100.00
47985;BME280;33753;52.912;-7.342;2023-02-13T09:37:45;101565.59;;;7.63;100.00
47985;BME280;33753;52.912;-7.342;2023-02-13T09:40:18;101559.44;;;7.72;100.00
47985;BME280;33753;52.912;-7.342;2023-02-13T09:42:47;101549.63;;;7.83;100.00
47985;BME280;33753;52.912;-7.342;2023-02-13T09:45:18;101536.81;;;8.07;100.00
47985;BME280;33753;52.912;-7.342;2023-02-13T09:47:47;101539.47;;;8.40;100.00
47985;BME280;33753;52.912;-7.342;2023-02-13T09:50:17;101533.06;;;8.73;100.00
47985;BME280;33753;52.912;-7.342;2023-02-13T09:52:48;101525.59;;;9.18;100.00
47985;BME280;33753;52.912;-7.342;2023-02-13T09:55:18;101514.03;;;9.46;100.00
47985;BME280;33753;52.912;-7.342;2023-02-13T09:57:49;101512.53;;;9.63;100.00
47985;BME280;33753;52.912;-7.342;2023-02-13T10:00:22;101509.53;;;9.96;100.00
47985;BME280;33753;52.912;-7.342;2023-02-13T10:02:57;101506.41;;;10.30;100.00
47985;BME280;33753;52.912;-7.342;2023-02-13T10:05:36;101495.28;;;10.62;100.00
47985;BME280;33753;52.912;-7.342;2023-02-13T10:08:11;101483.75;;;11.07;100.00
47985;BME280;33753;52.912;-7.342;2023-02-13T10:10:49;101483.78;;;11.53;100.00
47985;BME280;33753;52.912;-7.342;2023-02-13T10:13:27;101484.06;;;11.96;100.00
47985;BME280;33753;52.912;-7.342;2023-02-13T10:16:00;101480.16;;;12.17;100.00
47985;BME280;33753;52.912;-7.342;2023-02-13T10:18:33;101477.44;;;12.35;100.00
47985;BME280;33753;52.912;-7.342;2023-02-13T10:21:05;101470.72;;;12.03;100.00
47985;BME280;33753;52.912;-7.342;2023-02-13T10:23:34;101472.00;;;11.63;100.00
47985;BME280;33753;52.912;-7.342;2023-02-13T10:26:06;101480.97;;;11.45;100.00
47985;BME280;33753;52.912;-7.342;2023-02-13T10:28:39;101479.66;;;10.94;100.00
47985;BME280;33753;52.912;-7.342;2023-02-13T10:31:11;101484.00;;;10.77;100.00
47985;BME280;33753;52.912;-7.342;2023-02-13T10:33:43;101483.03;;;10.68;100.00
47985;BME280;33753;52.912;-7.342;2023-02-13T10:36:15;101479.06;;;10.52;100.00
47985;BME280;33753;52.912;-7.342;2023-02-13T10:38:44;101488.09;;;10.43;100.00
47985;BME280;33753;52.912;-7.342;2023-02-13T10:41:19;101475.41;;;10.34;100.00
47985;BME280;33753;52.912;-7.342;2023-02-13T10:43:54;101489.66;;;10.36;100.00
47985;BME280;33753;52.912;-7.342;2023-02-13T10:46:28;101481.94;;;10.21;100.00
47985;BME280;33753;52.912;-7.342;2023-02-13T10:51:47;101473.72;;;10.23;100.00
47985;BME280;33753;52.912;-7.342;2023-02-13T10:54:21;101481.09;;;10.31;100.00
47985;BME280;33753;52.912;-7.342;2023-02-13T10:56:53;101483.78;;;10.31;100.00
47985;BME280;33753;52.912;-7.342;2023-02-13T10:59:35;101486.78;;;10.18;100.00
47985;BME280;33753;52.912;-7.342;2023-02-13T11:02:12;101487.34;;;10.21;100.00
47985;BME280;33753;52.912;-7.342;2023-02-13T11:04:48;101499.59;;;10.26;100.00
47985;BME280;33753;52.912;-7.342;2023-02-13T11:07:17;101499.19;;;10.20;100.00
47985;BME280;33753;52.912;-7.342;2023-02-13T11:09:47;101496.03;;;10.15;100.00
47985;BME280;33753;52.912;-7.342;2023-02-13T11:12:22;101494.75;;;10.19;100.00
47985;BME280;33753;52.912;-7.342;2023-02-13T11:14:55;101496.31;;;10.22;100.00
47985;BME280;33753;52.912;-7.342;2023-02-13T11:17:25;101496.59;;;10.38;100.00
47985;BME280;33753;52.912;-7.342;2023-02-13T11:19:54;101491.94;;;10.41;100.00
47985;BME280;33753;52.912;-7.342;2023-02-13T11:22:27;101485.94;;;10.37;100.00
47985;BME280;33753;52.912;-7.342;2023-02-13T11:24:57;101497.31;;;10.31;100.00
47985;BME280;33753;52.912;-7.342;2023-02-13T11:27:27;101494.03;;;10.27;100.00
47985;BME280;33753;52.912;-7.342;2023-02-13T11:29:58;101483.94;;;10.19;100.00
47985;BME280;33753;52.912;-7.342;2023-02-13T11:32:31;101487.19;;;10.33;100.00
47985;BME280;33753;52.912;-7.342;2023-02-13T11:34:59;101491.63;;;10.24;100.00
47985;BME280;33753;52.912;-7.342;2023-02-13T11:37:43;101483.81;;;10.11;100.00
47985;BME280;33753;52.912;-7.342;2023-02-13T11:40:20;101493.91;;;10.09;100.00
47985;BME280;33753;52.912;-7.342;2023-02-13T11:42:55;101485.66;;;10.01;100.00
47985;BME280;33753;52.912;-7.342;2023-02-13T11:45:23;101504.72;;;9.90;100.00
47985;BME280;33753;52.912;-7.342;2023-02-13T11:47:54;101503.28;;;9.85;100.00
47985;BME280;33753;52.912;-7.342;2023-02-13T11:50:24;101498.16;;;9.73;100.00
47985;BME280;33753;52.912;-7.342;2023-02-13T11:52:54;101488.47;;;9.70;100.00
47985;BME280;33753;52.912;-7.342;2023-02-13T11:55:24;101476.69;;;9.81;100.00
47985;BME280;33753;52.912;-7.342;2023-02-13T11:57:56;101477.13;;;9.76;100.00
47985;BME280;33753;52.912;-7.342;2023-02-13T12:00:27;101476.66;;;9.61;100.00
47985;BME280;33753;52.912;-7.342;2023-02-13T12:02:58;101479.34;;;9.51;100.00
47985;BME280;33753;52.912;-7.342;2023-02-13T12:05:26;101484.75;;;9.51;100.00
47985;BME280;33753;52.912;-7.342;2023-02-13T12:07:56;101485.66;;;9.62;100.00
47985;BME280;33753;52.912;-7.342;2023-02-13T12:10:26;101474.53;;;9.55;100.00
47985;BME280;33753;52.912;-7.342;2023-02-13T12:12:55;101467.59;;;9.62;100.00
47985;BME280;33753;52.912;-7.342;2023-02-13T12:15:25;101471.13;;;9.63;100.00
47985;BME280;33753;52.912;-7.342;2023-02-13T12:18:05;101467.16;;;9.67;100.00
47985;BME280;33753;52.912;-7.342;2023-02-13T12:20:42;101471.00;;;9.55;100.00
47985;BME280;33753;52.912;-7.342;2023-02-13T12:23:18;101463.16;;;9.51;100.00
47985;BME280;33753;52.912;-7.342;2023-02-13T12:25:56;101468.00;;;9.48;100.00
47985;BME280;33753;52.912;-7.342;2023-02-13T12:28:32;101469.41;;;9.52;100.00
47985;BME280;33753;52.912;-7.342;2023-02-13T12:34:06;101459.47;;;9.52;100.00
47985;BME280;33753;52.912;-7.342;2023-02-13T12:36:44;101469.13;;;9.45;100.00
47985;BME280;33753;52.912;-7.342;2023-02-13T12:39:17;101456.34;;;9.47;100.00
47985;BME280;33753;52.912;-7.342;2023-02-13T12:41:53;101459.75;;;9.49;100.00
47985;BME280;33753;52.912;-7.342;2023-02-13T12:44:32;101463.41;;;9.29;100.00
47985;BME280;33753;52.912;-7.342;2023-02-13T12:47:13;101462.53;;;9.28;100.00
47985;BME280;33753;52.912;-7.342;2023-02-13T12:52:41;101470.78;;;9.27;100.00
47985;BME280;33753;52.912;-7.342;2023-02-13T12:58:01;101460.03;;;9.46;100.00
47985;BME280;33753;52.912;-7.342;2023-02-13T13:00:37;101435.88;;;9.45;100.00
47985;BME280;33753;52.912;-7.342;2023-02-13T13:03:10;101449.25;;;9.56;100.00
47985;BME280;33753;52.912;-7.342;2023-02-13T13:05:51;101440.84;;;9.59;100.00
47985;BME280;33753;52.912;-7.342;2023-02-13T13:11:42;101439.56;;;9.54;100.00
47985;BME280;33753;52.912;-7.342;2023-02-13T13:14:13;101440.72;;;9.61;100.00
47985;BME280;33753;52.912;-7.342;2023-02-13T13:16:45;101436.13;;;9.51;100.00
47985;BME280;33753;52.912;-7.342;2023-02-13T13:19:19;101432.88;;;9.48;100.00
47985;BME280;33753;52.912;-7.342;2023-02-13T13:21:52;101429.88;;;9.41;100.00
47985;BME280;33753;52.912;-7.342;2023-02-13T13:24:24;101432.16;;;9.36;100.00